Time;durP1;ratioP1;P1;durP2;ratioP2;P2;SDS_P1;SDS_P2;PMS_P1;PMS_P2;Temp;Humidity;BMP_temperature;BMP_pressure;BME280_temperature;BME280_humidity;BME280_pressure;Samples;Min_cycle;Max_cycle;Signal;HPM_P1;HPM_P2
2021/09/15 00:01:35;;;;;;;3.35;3.05;;;23.60;66.90;;;;;;5112184;28;20031;-67
2021/09/15 00:04:00;;;;;;;2.90;2.70;;;23.60;66.80;;;;;;5111943;28;20020;-67
2021/09/15 00:06:26;;;;;;;3.28;2.97;;;23.60;66.90;;;;;;5111402;28;20030;-67
2021/09/15 00:08:52;;;;;;;3.58;3.25;;;23.60;66.90;;;;;;5111388;28;20537;-67
2021/09/15 00:11:19;;;;;;;3.13;2.92;;;23.60;66.80;;;;;;5113715;28;20032;-67
2021/09/15 00:13:45;;;;;;;3.30;2.95;;;23.60;66.80;;;;;;5108520;28;20058;-67
2021/09/15 00:16:11;;;;;;;3.08;2.88;;;23.60;66.80;;;;;;5109955;28;20344;-67
2021/09/15 00:18:37;;;;;;;3.30;3.08;;;23.60;66.80;;;;;;5111863;28;20363;-67
2021/09/15 00:21:02;;;;;;;3.20;3.00;;;23.60;66.80;;;;;;5111593;28;20031;-67
2021/09/15 00:23:28;;;;;;;3.42;3.10;;;23.60;66.80;;;;;;5111057;28;20492;-67
2021/09/15 00:25:54;;;;;;;3.00;2.80;;;23.60;66.80;;;;;;5110504;28;20031;-65
2021/09/15 00:28:19;;;;;;;3.20;2.90;;;23.50;66.70;;;;;;5113102;28;20035;-65
2021/09/15 00:30:45;;;;;;;2.85;2.65;;;23.50;66.70;;;;;;5110463;28;20035;-65
2021/09/15 00:33:12;;;;;;;3.30;3.03;;;23.50;66.70;;;;;;5112402;28;20043;-65
2021/09/15 00:35:37;;;;;;;3.05;2.85;;;23.60;66.80;;;;;;5109331;28;20081;-65
2021/09/15 00:38:03;;;;;;;3.15;2.90;;;23.60;66.80;;;;;;5111607;28;20487;-65
2021/09/15 00:40:29;;;;;;;3.85;2.90;;;23.60;66.80;;;;;;5113690;28;20035;-65
2021/09/15 00:42:54;;;;;;;3.30;3.00;;;23.60;66.80;;;;;;5111973;28;20028;-65
2021/09/15 00:45:20;;;;;;;3.22;3.03;;;23.50;66.70;;;;;;5109461;28;20043;-65
2021/09/15 00:47:46;;;;;;;3.03;2.83;;;23.50;66.70;;;;;;5110504;28;20467;-65
2021/09/15 00:50:11;;;;;;;3.13;2.92;;;23.50;66.60;;;;;;5110765;28;20035;-67
2021/09/15 00:52:37;;;;;;;3.10;2.90;;;23.50;66.70;;;;;;5111627;28;20047;-67
2021/09/15 00:55:03;;;;;;;3.08;2.88;;;23.50;66.60;;;;;;5110402;28;20027;-67
2021/09/15 00:57:29;;;;;;;2.95;2.75;;;23.50;66.60;;;;;;5109440;28;20032;-67
2021/09/15 00:59:54;;;;;;;3.30;3.10;;;23.50;66.60;;;;;;5111498;28;20031;-67
2021/09/15 01:02:20;;;;;;;3.20;3.00;;;23.50;66.60;;;;;;5111386;28;20411;-67
2021/09/15 01:04:46;;;;;;;2.97;2.75;;;23.50;66.60;;;;;;5110284;28;20110;-67
2021/09/15 01:07:13;;;;;;;3.10;2.80;;;23.50;66.60;;;;;;5108773;28;20023;-67
2021/09/15 01:09:39;;;;;;;3.15;2.85;;;23.50;66.60;;;;;;5111142;28;20015;-67
2021/09/15 01:12:09;;;;;;;3.00;2.80;;;23.50;66.60;;;;;;5109250;28;20108;-67
2021/09/15 01:14:37;;;;;;;3.05;2.85;;;23.60;66.70;;;;;;5110142;28;20044;-67
2021/09/15 01:17:03;;;;;;;3.08;2.78;;;23.50;66.60;;;;;;5109739;28;20038;-67
2021/09/15 01:19:28;;;;;;;2.70;2.50;;;23.50;66.60;;;;;;5110786;28;20373;-67
2021/09/15 01:21:55;;;;;;;3.13;2.92;;;23.50;66.60;;;;;;5109793;28;20153;-67
2021/09/15 01:24:22;;;;;;;2.78;2.60;;;23.50;66.60;;;;;;5110057;28;20390;-67
2021/09/15 01:26:48;;;;;;;3.13;2.92;;;23.50;66.50;;;;;;5109920;28;20022;-67
2021/09/15 01:29:23;;;;;;;2.88;2.67;;;23.50;66.60;;;;;;5109073;27;20177;-67
2021/09/15 01:31:57;;;;;;;2.92;2.72;;;23.50;66.60;;;;;;5109231;28;20378;-67
2021/09/15 01:34:24;;;;;;;3.05;2.63;;;23.50;66.50;;;;;;5112473;27;20238;-67
2021/09/15 01:36:50;;;;;;;3.17;2.97;;;23.50;66.50;;;;;;5109981;28;20028;-67
2021/09/15 01:39:16;;;;;;;3.05;2.85;;;23.50;66.50;;;;;;5110588;28;20054;-67
2021/09/15 01:41:41;;;;;;;3.20;3.00;;;23.50;66.50;;;;;;5110183;28;20034;-68
2021/09/15 01:44:07;;;;;;;3.28;3.08;;;23.50;66.50;;;;;;5108550;28;20047;-65
2021/09/15 01:46:33;;;;;;;3.08;2.88;;;23.50;66.50;;;;;;5111645;28;20031;-65
2021/09/15 01:48:58;;;;;;;2.72;2.53;;;23.50;66.50;;;;;;5106623;28;20039;-65
2021/09/15 01:51:24;;;;;;;2.72;2.53;;;23.50;66.50;;;;;;5111621;28;20401;-65
2021/09/15 01:53:49;;;;;;;2.95;2.75;;;23.50;66.50;;;;;;5110804;28;20023;-67
2021/09/15 01:56:15;;;;;;;3.13;2.92;;;23.50;66.50;;;;;;5109507;28;20047;-67
2021/09/15 01:58:41;;;;;;;2.83;2.63;;;23.50;66.50;;;;;;5108919;28;20110;-67
2021/09/15 02:01:06;;;;;;;2.78;2.58;;;23.50;66.40;;;;;;5120053;27;20402;-67
2021/09/15 02:03:32;;;;;;;3.17;2.88;;;23.50;67.00;;;;;;5104294;28;20032;-67
2021/09/15 02:05:58;;;;;;;3.10;2.90;;;23.50;66.40;;;;;;5109352;28;20440;-67
2021/09/15 02:08:23;;;;;;;3.10;2.90;;;23.50;66.40;;;;;;5106935;28;20110;-67
2021/09/15 02:10:49;;;;;;;2.80;2.60;;;23.50;66.40;;;;;;5109948;28;20081;-67
2021/09/15 02:13:15;;;;;;;2.90;2.70;;;23.50;66.40;;;;;;5109761;28;20479;-67
2021/09/15 02:15:40;;;;;;;2.70;2.50;;;23.50;66.40;;;;;;5108989;28;20463;-67
2021/09/15 02:18:06;;;;;;;2.83;2.63;;;23.50;66.40;;;;;;5109131;28;20032;-67
2021/09/15 02:20:32;;;;;;;3.10;2.90;;;23.50;66.40;;;;;;5109478;28;20051;-67
2021/09/15 02:22:57;;;;;;;3.40;3.10;;;23.40;66.30;;;;;;5108391;28;20020;-67
2021/09/15 02:25:23;;;;;;;2.95;2.75;;;23.50;66.30;;;;;;5109028;28;20450;-67
2021/09/15 02:27:49;;;;;;;2.80;2.60;;;23.50;66.40;;;;;;5109223;28;20127;-67
2021/09/15 02:30:14;;;;;;;2.72;2.53;;;23.50;66.30;;;;;;5109685;28;20046;-67
2021/09/15 02:32:40;;;;;;;2.95;2.75;;;23.50;66.30;;;;;;5108251;28;20024;-67
2021/09/15 02:35:06;;;;;;;3.05;2.85;;;23.50;66.30;;;;;;5108023;28;20093;-67
2021/09/15 02:37:31;;;;;;;2.90;2.70;;;23.50;66.30;;;;;;5109606;28;20092;-67
2021/09/15 02:39:57;;;;;;;2.67;2.45;;;23.50;66.30;;;;;;5109223;28;20024;-67
2021/09/15 02:42:23;;;;;;;2.90;2.70;;;23.50;66.30;;;;;;5109581;28;20032;-67
2021/09/15 02:44:48;;;;;;;2.88;2.67;;;23.40;66.20;;;;;;5106506;28;20023;-67
2021/09/15 02:47:14;;;;;;;2.55;2.35;;;23.50;66.30;;;;;;5107537;28;20039;-67
2021/09/15 02:49:40;;;;;;;3.08;2.88;;;23.50;66.30;;;;;;5109358;28;20011;-67
2021/09/15 02:52:05;;;;;;;2.47;2.30;;;23.50;66.30;;;;;;5108327;28;20028;-67
2021/09/15 02:54:31;;;;;;;3.00;2.80;;;23.40;66.20;;;;;;5108526;28;20450;-67
2021/09/15 02:56:57;;;;;;;3.00;2.80;;;23.50;66.20;;;;;;5108320;28;20335;-67
2021/09/15 02:59:23;;;;;;;2.63;2.42;;;23.40;66.20;;;;;;5107821;28;20031;-67
2021/09/15 03:01:48;;;;;;;2.30;2.20;;;23.40;66.20;;;;;;5108647;28;20137;-67
2021/09/15 03:04:14;;;;;;;2.72;2.53;;;23.40;66.20;;;;;;5107994;28;20093;-68
2021/09/15 03:06:39;;;;;;;3.10;2.90;;;23.40;66.20;;;;;;5109989;28;20028;-64
2021/09/15 03:09:05;;;;;;;3.03;2.72;;;23.40;66.20;;;;;;5108118;28;20077;-64
2021/09/15 03:11:32;;;;;;;2.60;2.40;;;23.40;66.20;;;;;;5109212;28;20028;-64
2021/09/15 03:13:57;;;;;;;2.85;2.65;;;23.40;66.20;;;;;;5109516;28;20047;-67
2021/09/15 03:16:25;;;;;;;2.95;2.75;;;23.40;66.20;;;;;;5108847;28;20032;-67
2021/09/15 03:18:51;;;;;;;2.97;2.78;;;23.40;66.20;;;;;;5071277;28;20036;-64
2021/09/15 03:21:16;;;;;;;2.92;2.72;;;23.40;66.20;;;;;;5108688;28;20656;-64
2021/09/15 03:23:42;;;;;;;2.90;2.70;;;23.40;66.20;;;;;;5109599;28;20041;-67
2021/09/15 03:26:08;;;;;;;2.70;2.50;;;23.40;66.20;;;;;;5108125;28;20102;-64
2021/09/15 03:28:33;;;;;;;2.85;2.65;;;23.40;66.20;;;;;;5108312;28;20023;-64
2021/09/15 03:30:59;;;;;;;3.25;2.95;;;23.40;66.20;;;;;;5107341;28;20032;-64
2021/09/15 03:33:25;;;;;;;3.03;2.83;;;23.40;66.20;;;;;;5108841;28;20023;-64
2021/09/15 03:35:50;;;;;;;2.88;2.67;;;23.40;66.20;;;;;;5107845;28;20019;-64
2021/09/15 03:38:16;;;;;;;2.85;2.65;;;23.40;66.20;;;;;;5106841;28;20613;-65
2021/09/15 03:40:42;;;;;;;3.00;2.80;;;23.40;66.20;;;;;;5108526;28;20032;-64
2021/09/15 03:43:08;;;;;;;3.08;2.78;;;23.40;66.20;;;;;;5110398;28;20071;-67
2021/09/15 03:45:33;;;;;;;3.00;2.80;;;23.40;66.30;;;;;;5108303;28;20042;-66
2021/09/15 03:47:59;;;;;;;3.30;3.00;;;23.40;66.30;;;;;;5108428;28;20121;-64
2021/09/15 03:50:24;;;;;;;3.10;2.90;;;23.40;66.30;;;;;;5104337;28;20032;-64
2021/09/15 03:52:50;;;;;;;2.90;2.70;;;23.40;66.30;;;;;;5108668;28;20391;-67
2021/09/15 03:55:16;;;;;;;2.65;2.45;;;23.40;66.30;;;;;;5105832;28;20380;-67
2021/09/15 03:57:41;;;;;;;2.72;2.53;;;23.40;66.30;;;;;;5110008;28;20027;-64
2021/09/15 04:00:07;;;;;;;2.70;2.50;;;23.40;66.30;;;;;;5110201;28;20826;-64
2021/09/15 04:02:33;;;;;;;3.10;2.90;;;23.40;66.30;;;;;;5108661;28;20042;-64
2021/09/15 04:04:59;;;;;;;2.80;2.60;;;23.40;66.30;;;;;;5107942;28;20486;-64
2021/09/15 04:07:24;;;;;;;2.97;2.78;;;23.40;66.20;;;;;;5107709;28;20034;-64
2021/09/15 04:09:50;;;;;;;2.88;2.67;;;23.40;66.30;;;;;;5109717;28;20016;-64
2021/09/15 04:12:16;;;;;;;2.83;2.63;;;23.40;66.20;;;;;;5110251;28;20024;-64
2021/09/15 04:14:43;;;;;;;2.80;2.60;;;23.40;66.20;;;;;;5104019;28;20097;-67
2021/09/15 04:17:09;;;;;;;2.72;2.53;;;23.40;66.30;;;;;;5100816;28;20036;-64
2021/09/15 04:19:34;;;;;;;2.88;2.67;;;23.40;66.20;;;;;;5109366;28;20053;-64
2021/09/15 04:22:00;;;;;;;3.17;2.97;;;23.40;66.20;;;;;;5112982;28;20042;-64
2021/09/15 04:32:35;;;;;;;2.80;2.60;;;23.40;66.30;;;;;;5109292;28;20362;-67
2021/09/15 04:35:01;;;;;;;3.10;2.90;;;23.30;66.20;;;;;;5110769;28;20028;-67
2021/09/15 04:37:26;;;;;;;2.88;2.67;;;23.30;66.20;;;;;;5098264;28;20032;-67
2021/09/15 04:39:52;;;;;;;2.63;2.42;;;23.40;66.30;;;;;;5105698;27;20099;-67
2021/09/15 04:42:18;;;;;;;2.92;2.72;;;23.30;66.20;;;;;;5111171;27;20115;-67
2021/09/15 04:44:43;;;;;;;3.10;2.90;;;23.40;66.30;;;;;;5103989;27;20024;-67
2021/09/15 04:47:11;;;;;;;2.67;2.35;;;23.40;66.30;;;;;;5104329;27;20047;-67
2021/09/15 04:49:36;;;;;;;2.65;2.45;;;23.30;66.20;;;;;;5098366;28;20529;-67
2021/09/15 04:52:12;;;;;;;2.80;2.60;;;23.40;66.20;;;;;;5096804;28;20103;-67
2021/09/15 04:54:38;;;;;;;3.00;2.80;;;23.30;66.20;;;;;;5096809;28;20039;-67
2021/09/15 04:57:03;;;;;;;3.13;2.92;;;23.30;66.20;;;;;;5102919;28;20023;-67
2021/09/15 04:59:29;;;;;;;2.90;2.70;;;23.40;66.20;;;;;;5098144;28;20028;-67
2021/09/15 05:01:54;;;;;;;2.83;2.63;;;23.40;66.20;;;;;;5105769;28;20069;-67
2021/09/15 05:04:20;;;;;;;2.80;2.60;;;23.30;66.20;;;;;;5107012;28;20126;-67
2021/09/15 05:06:46;;;;;;;2.90;2.70;;;23.40;66.30;;;;;;5101356;28;20058;-67
2021/09/15 05:09:11;;;;;;;2.80;2.60;;;23.40;66.20;;;;;;5111103;28;20023;-64
2021/09/15 05:11:37;;;;;;;2.65;2.45;;;23.30;66.20;;;;;;5111190;28;20127;-64
2021/09/15 05:14:03;;;;;;;2.70;2.50;;;23.30;66.20;;;;;;5108945;28;20071;-64
2021/09/15 05:16:30;;;;;;;3.15;2.85;;;23.40;66.30;;;;;;5109631;28;20180;-67
2021/09/15 05:18:56;;;;;;;2.92;2.72;;;23.30;66.20;;;;;;5111792;28;20035;-64
2021/09/15 05:21:22;;;;;;;2.80;2.60;;;23.40;66.30;;;;;;5101285;28;20032;-64
2021/09/15 05:23:48;;;;;;;2.70;2.50;;;23.40;66.20;;;;;;5111265;28;20035;-64
2021/09/15 05:26:13;;;;;;;2.83;2.63;;;23.30;66.20;;;;;;5110353;28;20382;-64
2021/09/15 05:28:39;;;;;;;2.88;2.67;;;23.40;66.20;;;;;;5111167;28;20035;-64
2021/09/15 05:31:04;;;;;;;3.20;2.90;;;23.30;66.20;;;;;;5110564;28;20039;-64
2021/09/15 05:33:30;;;;;;;2.67;2.47;;;23.30;66.20;;;;;;5109149;28;20103;-67
2021/09/15 05:35:56;;;;;;;2.90;2.70;;;23.30;66.20;;;;;;5097515;28;20115;-67
2021/09/15 05:38:21;;;;;;;2.85;2.60;;;23.30;66.20;;;;;;5103276;28;20027;-67
2021/09/15 05:40:47;;;;;;;2.85;2.65;;;23.30;66.20;;;;;;5087558;28;20102;-67
2021/09/15 05:43:12;;;;;;;2.70;2.50;;;23.30;66.20;;;;;;5106265;28;20027;-67
2021/09/15 05:45:38;;;;;;;2.70;2.50;;;23.30;66.20;;;;;;5110279;28;20112;-67
2021/09/15 05:48:04;;;;;;;2.90;2.70;;;23.30;66.10;;;;;;5109844;28;20099;-67
2021/09/15 05:50:30;;;;;;;2.75;2.55;;;23.30;66.20;;;;;;5109442;28;20142;-67
2021/09/15 05:52:55;;;;;;;2.80;2.60;;;23.30;66.20;;;;;;5110694;28;20398;-67
2021/09/15 05:55:21;;;;;;;2.70;2.50;;;23.30;66.10;;;;;;5110043;28;20015;-67
2021/09/15 05:57:46;;;;;;;2.92;2.72;;;23.30;66.20;;;;;;5109959;28;20035;-67
2021/09/15 06:00:12;;;;;;;2.83;2.63;;;23.30;66.10;;;;;;5109639;28;20038;-67
2021/09/15 06:02:38;;;;;;;2.63;2.42;;;23.30;66.10;;;;;;5088253;28;20039;-67
2021/09/15 06:05:04;;;;;;;2.63;2.42;;;23.30;66.20;;;;;;5089336;28;20459;-65
2021/09/15 06:07:30;;;;;;;3.03;2.72;;;23.30;66.20;;;;;;5110029;28;20027;-65
2021/09/15 06:09:56;;;;;;;2.80;2.60;;;23.30;66.20;;;;;;5109773;28;20016;-67
2021/09/15 06:12:21;;;;;;;2.50;2.30;;;23.30;66.20;;;;;;5109011;28;20513;-67
2021/09/15 06:14:47;;;;;;;2.83;2.63;;;23.30;66.10;;;;;;5109570;28;20086;-67
2021/09/15 06:17:13;;;;;;;2.90;2.50;;;23.30;66.20;;;;;;5109621;28;20032;-67
2021/09/15 06:19:38;;;;;;;3.80;2.70;;;23.30;66.80;;;;;;5108080;28;20382;-67
2021/09/15 06:22:04;;;;;;;2.58;2.38;;;23.30;66.30;;;;;;5090427;28;20122;-67
2021/09/15 06:24:30;;;;;;;2.65;2.45;;;23.30;66.20;;;;;;5107922;28;20118;-67
2021/09/15 06:26:55;;;;;;;2.55;2.35;;;23.30;66.20;;;;;;5110335;28;20030;-67
2021/09/15 06:29:21;;;;;;;2.88;2.67;;;23.30;66.20;;;;;;5108837;28;20031;-65
2021/09/15 06:31:47;;;;;;;2.90;2.70;;;23.30;66.20;;;;;;5107619;28;20030;-65
2021/09/15 06:34:13;;;;;;;2.92;2.72;;;23.30;66.20;;;;;;5108877;28;20035;-65
2021/09/15 06:36:39;;;;;;;2.88;2.67;;;23.30;66.10;;;;;;5107391;28;20422;-65
2021/09/15 06:39:06;;;;;;;2.83;2.63;;;23.30;66.20;;;;;;5110859;28;20031;-65
2021/09/15 06:41:32;;;;;;;2.70;2.50;;;23.30;66.20;;;;;;5108690;28;20051;-65
2021/09/15 06:44:01;;;;;;;2.42;2.22;;;23.30;66.20;;;;;;5110353;28;20116;-65
2021/09/15 06:46:26;;;;;;;2.80;2.60;;;23.30;66.20;;;;;;5106987;28;20019;-64
2021/09/15 06:48:52;;;;;;;2.80;2.60;;;23.30;66.10;;;;;;5109108;28;20038;-65
2021/09/15 06:51:18;;;;;;;2.72;2.53;;;23.30;66.20;;;;;;5106373;28;20038;-65
2021/09/15 06:53:44;;;;;;;3.00;2.80;;;23.30;66.20;;;;;;5106562;28;20126;-64
2021/09/15 06:56:10;;;;;;;3.00;2.80;;;23.30;66.20;;;;;;5107637;28;20035;-65
2021/09/15 06:58:36;;;;;;;3.03;2.83;;;23.30;66.10;;;;;;5109171;28;20055;-65
2021/09/15 07:01:01;;;;;;;2.95;2.75;;;23.30;66.10;;;;;;5108154;28;20103;-64
2021/09/15 07:03:27;;;;;;;2.85;2.50;;;23.30;66.10;;;;;;5108563;28;20028;-64
2021/09/15 07:05:53;;;;;;;2.60;2.40;;;23.30;66.10;;;;;;5108001;28;20454;-64
2021/09/15 07:08:18;;;;;;;2.80;2.60;;;23.30;66.10;;;;;;5106976;28;20123;-64
2021/09/15 07:10:44;;;;;;;2.85;2.65;;;23.30;66.10;;;;;;5107815;28;20447;-65
2021/09/15 07:13:10;;;;;;;2.88;2.67;;;23.30;66.10;;;;;;5106275;28;20036;-69
2021/09/15 07:15:36;;;;;;;3.33;2.80;;;23.30;66.10;;;;;;5099872;28;20114;-66
2021/09/15 07:18:02;;;;;;;2.78;2.58;;;23.30;66.20;;;;;;5103709;28;20119;-66
2021/09/15 07:20:28;;;;;;;3.03;2.83;;;23.30;66.30;;;;;;5098004;28;20024;-66
2021/09/15 07:22:53;;;;;;;3.33;3.00;;;23.30;66.30;;;;;;5104944;28;21322;-66
2021/09/15 07:25:19;;;;;;;3.38;3.08;;;23.30;66.50;;;;;;5101996;28;20057;-66
2021/09/15 07:27:45;;;;;;;2.90;2.70;;;23.30;66.50;;;;;;5103427;28;20031;-66
2021/09/15 07:30:12;;;;;;;2.92;2.72;;;23.30;66.70;;;;;;5105525;28;20482;-66
2021/09/15 07:32:38;;;;;;;3.13;2.80;;;23.30;66.70;;;;;;5100582;28;20025;-66
2021/09/15 07:35:04;;;;;;;3.30;3.00;;;23.30;66.70;;;;;;5105334;28;20032;-66
2021/09/15 07:37:30;;;;;;;2.65;2.45;;;23.30;66.70;;;;;;5105571;28;20049;-66
2021/09/15 07:39:56;;;;;;;3.10;2.90;;;23.30;66.80;;;;;;5099590;28;20509;-66
2021/09/15 07:42:22;;;;;;;3.42;3.13;;;23.30;66.80;;;;;;5097820;28;20036;-66
2021/09/15 07:44:48;;;;;;;3.13;2.85;;;23.30;66.80;;;;;;5087837;28;20024;-66
2021/09/15 07:47:18;;;;;;;3.15;2.88;;;23.30;66.90;;;;;;5105128;28;20657;-66
2021/09/15 07:49:45;;;;;;;3.10;2.90;;;23.30;66.90;;;;;;5099513;28;20020;-66
2021/09/15 07:52:12;;;;;;;3.55;3.25;;;23.30;66.90;;;;;;5104206;28;20050;-66
2021/09/15 07:54:38;;;;;;;3.10;2.80;;;23.30;66.90;;;;;;5105472;28;20040;-66
2021/09/15 07:57:04;;;;;;;3.10;2.85;;;23.30;67.00;;;;;;5108935;28;20058;-66
2021/09/15 07:59:29;;;;;;;3.58;3.28;;;23.40;67.00;;;;;;5102442;28;20052;-66
2021/09/15 08:01:55;;;;;;;3.50;3.20;;;23.30;67.00;;;;;;5102625;28;20101;-66
2021/09/15 08:04:20;;;;;;;3.20;3.00;;;23.40;67.10;;;;;;5104459;28;20363;-66
2021/09/15 08:06:46;;;;;;;3.80;3.35;;;23.30;67.00;;;;;;5110387;28;20043;-66
2021/09/15 08:09:11;;;;;;;3.70;2.90;;;23.40;67.10;;;;;;5102484;28;20543;-66
2021/09/15 08:11:37;;;;;;;3.30;3.00;;;23.40;67.10;;;;;;5110097;28;20081;-66
2021/09/15 08:14:03;;;;;;;2.97;2.78;;;23.40;67.10;;;;;;5097830;28;20055;-66
2021/09/15 08:16:28;;;;;;;3.22;2.95;;;23.30;67.10;;;;;;5089363;28;20051;-66
2021/09/15 08:18:54;;;;;;;3.10;2.90;;;23.40;67.40;;;;;;5098363;28;20107;-67
2021/09/15 08:21:20;;;;;;;6.45;3.17;;;23.40;67.10;;;;;;5097068;28;20031;-67
2021/09/15 08:23:45;;;;;;;3.10;2.80;;;23.30;67.10;;;;;;5091708;28;20089;-66
2021/09/15 08:26:11;;;;;;;3.15;2.85;;;23.40;67.20;;;;;;5098541;27;20375;-66
2021/09/15 08:28:37;;;;;;;3.35;3.03;;;23.40;67.20;;;;;;5100418;28;20070;-66
2021/09/15 08:31:10;;;;;;;4.00;2.70;;;23.40;67.20;;;;;;5104316;28;20476;-66
2021/09/15 08:33:36;;;;;;;3.85;3.20;;;23.40;67.20;;;;;;5105813;28;20483;-66
2021/09/15 08:36:02;;;;;;;2.70;2.50;;;23.40;67.20;;;;;;5101480;28;20127;-66
2021/09/15 08:38:27;;;;;;;3.13;2.88;;;23.40;67.20;;;;;;5093802;28;20095;-65
2021/09/15 08:40:54;;;;;;;2.95;2.72;;;23.40;67.20;;;;;;5104000;28;20024;-66
2021/09/15 08:43:20;;;;;;;2.78;2.58;;;23.40;67.20;;;;;;5095315;28;20020;-66
2021/09/15 08:45:46;;;;;;;3.60;3.30;;;23.40;67.30;;;;;;5105983;28;20422;-66
2021/09/15 08:48:15;;;;;;;3.25;2.95;;;23.40;67.40;;;;;;5100207;28;20019;-66
2021/09/15 08:50:41;;;;;;;3.47;2.78;;;23.40;67.40;;;;;;5100099;28;20130;-64
2021/09/15 08:53:07;;;;;;;3.42;3.13;;;23.40;67.40;;;;;;5097056;28;20036;-73
2021/09/15 08:55:33;;;;;;;3.30;3.00;;;23.40;67.40;;;;;;5097076;28;20024;-72
2021/09/15 08:58:00;;;;;;;3.03;2.72;;;23.40;67.30;;;;;;5099834;28;20028;-73
2021/09/15 09:00:25;;;;;;;3.28;2.72;;;23.40;67.90;;;;;;5103832;28;20024;-72
2021/09/15 09:02:52;;;;;;;3.20;2.90;;;23.40;67.20;;;;;;5100349;28;20024;-70
2021/09/15 09:05:18;;;;;;;2.83;2.63;;;23.40;67.20;;;;;;5095423;28;20042;-63
2021/09/15 09:07:44;;;;;;;2.80;2.60;;;23.50;67.30;;;;;;5100010;28;20020;-63
2021/09/15 09:10:13;;;;;;;2.90;2.70;;;23.40;67.30;;;;;;5089281;28;20084;-69
2021/09/15 09:12:41;;;;;;;2.78;2.55;;;23.40;67.20;;;;;;5108481;27;20058;-70
2021/09/15 09:15:22;;;;;;;3.22;2.95;;;23.40;67.20;;;;;;5097277;28;20040;-65
2021/09/15 09:17:48;;;;;;;2.60;2.40;;;23.50;67.20;;;;;;5101857;28;20028;-67
2021/09/15 09:20:22;;;;;;;3.20;2.90;;;23.40;67.10;;;;;;5101505;27;20027;-64
2021/09/15 09:23:07;;;;;;;3.10;2.83;;;23.50;67.20;;;;;;5106786;28;20020;-66
2021/09/15 09:25:37;;;;;;;2.78;2.58;;;23.50;67.20;;;;;;5092483;28;20032;-68
2021/09/15 09:28:16;;;;;;;2.97;2.72;;;23.50;67.20;;;;;;5099021;28;20031;-70
2021/09/15 09:30:42;;;;;;;3.28;2.88;;;23.50;67.20;;;;;;5097397;27;20102;-73
2021/09/15 09:33:08;;;;;;;2.92;2.72;;;23.50;67.20;;;;;;5095279;28;20061;-70
2021/09/15 09:35:56;;;;;;;3.28;3.03;;;23.50;67.10;;;;;;5102812;28;20030;-71
2021/09/15 09:38:23;;;;;;;3.38;3.08;;;23.50;67.20;;;;;;5102295;27;20027;-69
2021/09/15 09:41:12;;;;;;;3.33;2.90;;;23.50;67.20;;;;;;5101537;28;20550;-70
2021/09/15 09:43:58;;;;;;;3.20;2.90;;;23.50;67.20;;;;;;5097219;28;20027;-70
2021/09/15 09:46:33;;;;;;;3.00;2.80;;;23.50;67.20;;;;;;5105599;27;20538;-70
2021/09/15 09:49:03;;;;;;;3.28;3.05;;;23.50;67.30;;;;;;5097111;27;20028;-69
2021/09/15 09:51:33;;;;;;;3.20;2.90;;;23.60;67.30;;;;;;5096467;28;20089;-65
2021/09/15 09:54:19;;;;;;;3.40;3.10;;;23.60;67.30;;;;;;5104241;27;20092;-65
2021/09/15 09:56:46;;;;;;;3.50;3.20;;;23.60;67.40;;;;;;5099377;28;20564;-65
2021/09/15 09:59:13;;;;;;;3.70;3.35;;;23.60;67.30;;;;;;5100473;28;20032;-65
2021/09/15 10:02:02;;;;;;;3.90;3.55;;;23.60;67.40;;;;;;5095567;28;20545;-65
2021/09/15 10:04:28;;;;;;;3.90;3.42;;;23.60;67.40;;;;;;5097032;27;20043;-65
2021/09/15 10:06:55;;;;;;;3.70;3.40;;;23.60;67.50;;;;;;5104844;28;20061;-65
2021/09/15 10:09:23;;;;;;;3.60;3.30;;;23.60;67.50;;;;;;5100402;28;20114;-65
2021/09/15 10:11:49;;;;;;;3.38;3.10;;;23.60;67.50;;;;;;5108583;27;20107;-66
2021/09/15 10:14:17;;;;;;;4.82;3.80;;;23.60;68.10;;;;;;5101271;28;20483;-65
2021/09/15 10:16:54;;;;;;;4.20;3.80;;;23.60;67.40;;;;;;5098930;28;20031;-65
2021/09/15 10:19:28;;;;;;;3.97;3.58;;;23.60;67.50;;;;;;5101020;28;20031;-65
2021/09/15 10:21:59;;;;;;;3.88;3.50;;;23.60;67.40;;;;;;5101075;27;20573;-65
2021/09/15 10:24:47;;;;;;;4.25;3.63;;;23.70;67.50;;;;;;5106612;27;20130;-65
2021/09/15 10:27:13;;;;;;;3.90;3.60;;;23.70;67.50;;;;;;5089817;28;20031;-65
2021/09/15 10:29:42;;;;;;;4.22;3.80;;;23.70;67.40;;;;;;5100375;28;20028;-65
2021/09/15 10:32:10;;;;;;;3.97;3.67;;;23.70;67.40;;;;;;5105336;27;20080;-65
2021/09/15 10:34:41;;;;;;;4.38;3.97;;;23.70;67.40;;;;;;5103553;28;20043;-65
2021/09/15 10:37:26;;;;;;;4.13;3.53;;;23.70;67.40;;;;;;5097307;28;20040;-62
2021/09/15 10:40:11;;;;;;;4.43;4.03;;;23.70;67.50;;;;;;5097647;28;20028;-59
2021/09/15 10:42:46;;;;;;;6.53;5.93;;;23.80;67.70;;;;;;5094934;28;20486;-56
2021/09/15 10:45:26;;;;;;;9.85;8.90;;;23.80;68.20;;;;;;5106682;28;20425;-59
2021/09/15 10:47:58;;;;;;;12.90;11.60;;;23.70;68.90;;;;;;5103367;28;20027;-58
2021/09/15 10:50:30;;;;;;;17.52;15.00;;;23.80;69.60;;;;;;5094186;28;20474;-58
2021/09/15 10:53:08;;;;;;;;;;;23.70;70.20;;;;;;5088673;28;20020;-59
2021/09/15 10:55:42;;;;;;;19.02;17.05;;;23.70;70.30;;;;;;5096884;28;20282;-58
2021/09/15 10:58:17;;;;;;;16.23;14.50;;;23.60;71.20;;;;;;5107289;28;20127;-58
2021/09/15 11:01:05;;;;;;;18.30;15.60;;;23.60;71.00;;;;;;5093886;28;20012;-57
2021/09/15 11:03:50;;;;;;;20.30;17.45;;;23.70;71.70;;;;;;5090177;28;20031;-58
2021/09/15 11:06:17;;;;;;;19.92;17.77;;;23.60;71.70;;;;;;5104939;28;20083;-58
2021/09/15 11:08:48;;;;;;;21.30;18.55;;;23.60;71.70;;;;;;5104998;28;20019;-59
2021/09/15 11:11:19;;;;;;;19.70;16.77;;;23.70;72.00;;;;;;5099764;28;20032;-58
2021/09/15 11:14:06;;;;;;;25.48;20.92;;;23.70;72.00;;;;;;5097679;28;20452;-56
2021/09/15 11:16:36;;;;;;;25.02;20.73;;;23.70;72.30;;;;;;5093752;28;20490;-59
2021/09/15 11:19:09;;;;;;;20.35;18.25;;;23.70;72.50;;;;;;5097241;28;20008;-60
2021/09/15 11:21:57;;;;;;;21.73;18.27;;;23.80;72.20;;;;;;5107086;28;20110;-63
2021/09/15 11:24:30;;;;;;;23.85;20.52;;;23.80;72.10;;;;;;5102644;28;20412;-63
2021/09/15 11:26:57;;;;;;;24.77;19.90;;;23.80;72.70;;;;;;5103477;28;20020;-66
2021/09/15 11:29:44;;;;;;;21.65;19.35;;;23.80;72.70;;;;;;5095603;28;20012;-64
2021/09/15 11:32:13;;;;;;;21.88;18.35;;;23.80;72.70;;;;;;5097997;28;20378;-64
2021/09/15 11:34:45;;;;;;;21.38;17.83;;;23.80;72.50;;;;;;5097694;28;20490;-63
2021/09/15 11:37:23;;;;;;;24.10;20.67;;;23.80;72.40;;;;;;5104359;28;20126;-67
2021/09/15 11:39:57;;;;;;;23.10;20.17;;;23.90;72.40;;;;;;5109001;27;20019;-66
2021/09/15 11:42:26;;;;;;;20.88;17.60;;;23.90;72.60;;;;;;5092905;28;20568;-64
2021/09/15 11:44:52;;;;;;;23.80;18.75;;;23.80;72.40;;;;;;5094383;28;20016;-66
2021/09/15 11:47:27;;;;;;;24.75;19.13;;;23.80;72.50;;;;;;5094089;28;20016;-67
2021/09/15 11:49:53;;;;;;;21.13;16.90;;;23.80;72.30;;;;;;5100168;28;20020;-63
2021/09/15 11:53:12;;;;;;;20.45;17.13;;;23.80;72.00;;;;;;5096174;28;20126;-71
2021/09/15 11:55:50;;;;;;;19.13;16.33;;;23.80;71.90;;;;;;5086177;28;20049;-72
2021/09/15 12:48:22;;;;;;;11.95;10.80;;;23.70;70.50;;;;;;4818097;29;20066;-69
2021/09/15 12:51:01;;;;;;;;;;;;;;;;;;;;;
2021/09/15 12:53:30;;;;;;;10.80;9.23;;;23.70;70.40;;;;;;4790322;29;20047;-69
2021/09/15 13:06:58;;;;;;;6.03;5.47;;;23.80;69.40;;;;;;4865805;29;20051;-68
2021/09/15 13:09:36;;;;;;;6.78;6.18;;;23.70;68.90;;;;;;4871584;29;20124;-67
2021/09/15 13:12:26;;;;;;;6.32;5.72;;;23.80;67.50;;;;;;4865053;29;20554;-71
2021/09/15 13:18:25;;;;;;;4.47;4.07;;;23.70;67.70;;;;;;4951034;28;20132;-72
2021/09/15 13:20:54;;;;;;;4.70;3.65;;;23.80;67.90;;;;;;4968400;28;20129;-74
2021/09/15 13:23:19;;;;;;;4.43;3.88;;;23.80;67.90;;;;;;5045281;28;20047;-67
2021/09/15 13:26:11;;;;;;;5.38;4.13;;;23.80;67.80;;;;;;5055020;28;20037;-68
2021/09/15 13:32:39;;;;;;;3.47;3.13;;;23.90;66.80;;;;;;5059808;28;20077;-69
2021/09/15 13:35:05;;;;;;;5.32;3.65;;;23.80;67.20;;;;;;5064574;28;20324;-73
2021/09/15 13:38:06;;;;;;;3.50;3.20;;;23.80;66.20;;;;;;5059687;28;20043;-67
2021/09/15 13:41:00;;;;;;;3.45;3.00;;;23.70;66.80;;;;;;5066715;28;20059;-72
2021/09/15 13:50:04;;;;;;;2.70;2.50;;;23.80;66.60;;;;;;5002579;28;20061;-72
2021/09/15 14:35:00;;;;;;;2.63;2.00;;;23.70;65.60;;;;;;5071716;28;20146;-62
2021/09/15 14:37:26;;;;;;;3.08;2.00;;;23.70;64.80;;;;;;5046529;28;20063;-62
2021/09/15 14:39:51;;;;;;;1.70;1.40;;;23.60;64.70;;;;;;5103625;28;20240;-63
2021/09/15 14:42:17;;;;;;;2.47;1.83;;;23.60;65.00;;;;;;5094961;28;20089;-68
2021/09/15 14:44:42;;;;;;;2.47;1.65;;;23.60;65.10;;;;;;5098277;28;20081;-67
2021/09/15 14:47:10;;;;;;;4.97;2.10;;;23.60;65.20;;;;;;5088700;28;20384;-63
2021/09/15 14:49:35;;;;;;;2.20;1.92;;;23.60;65.00;;;;;;5089675;28;20036;-66
2021/09/15 14:52:03;;;;;;;2.67;1.88;;;23.50;65.20;;;;;;5093511;28;20086;-63
2021/09/15 14:54:28;;;;;;;2.97;1.75;;;23.50;65.40;;;;;;5095154;28;20028;-65
2021/09/15 14:56:54;;;;;;;1.63;1.50;;;23.40;65.50;;;;;;5098658;28;20392;-67